sensor_id;sensor_type;location;lat;lon;timestamp;P1;durP1;ratioP1;P2;durP2;ratioP2
78346;SDS011;67803;41.330;69.282;2024-03-22T00:00:51;11.43;;;4.40;;
78346;SDS011;67803;41.330;69.282;2024-03-22T00:03:22;11.80;;;4.13;;
78346;SDS011;67803;41.330;69.282;2024-03-22T00:05:53;9.90;;;3.90;;
78346;SDS011;67803;41.330;69.282;2024-03-22T00:08:23;7.22;;;3.70;;
78346;SDS011;67803;41.330;69.282;2024-03-22T00:10:54;8.00;;;3.60;;
78346;SDS011;67803;41.330;69.282;2024-03-22T00:13:24;8.80;;;3.78;;
78346;SDS011;67803;41.330;69.282;2024-03-22T00:15:55;8.55;;;3.53;;
78346;SDS011;67803;41.330;69.282;2024-03-22T00:18:25;5.50;;;3.20;;
78346;SDS011;67803;41.330;69.282;2024-03-22T00:20:56;9.77;;;3.90;;
78346;SDS011;67803;41.330;69.282;2024-03-22T00:23:26;10.68;;;3.72;;
78346;SDS011;67803;41.330;69.282;2024-03-22T00:25:57;9.20;;;3.53;;
78346;SDS011;67803;41.330;69.282;2024-03-22T00:28:28;10.43;;;3.67;;
78346;SDS011;67803;41.330;69.282;2024-03-22T00:30:58;6.50;;;3.58;;
78346;SDS011;67803;41.330;69.282;2024-03-22T00:33:29;9.25;;;3.85;;
78346;SDS011;67803;41.330;69.282;2024-03-22T00:35:59;7.20;;;3.42;;
78346;SDS011;67803;41.330;69.282;2024-03-22T00:38:30;8.20;;;3.72;;
78346;SDS011;67803;41.330;69.282;2024-03-22T00:41:01;6.57;;;3.58;;
78346;SDS011;67803;41.330;69.282;2024-03-22T00:43:31;7.47;;;3.60;;
78346;SDS011;67803;41.330;69.282;2024-03-22T00:46:02;6.43;;;3.42;;
78346;SDS011;67803;41.330;69.282;2024-03-22T00:48:33;6.15;;;3.67;;
78346;SDS011;67803;41.330;69.282;2024-03-22T00:51:05;8.00;;;4.18;;
78346;SDS011;67803;41.330;69.282;2024-03-22T00:53:36;6.93;;;3.72;;
78346;SDS011;67803;41.330;69.282;2024-03-22T00:56:06;8.15;;;3.90;;
78346;SDS011;67803;41.330;69.282;2024-03-22T00:58:37;8.18;;;4.47;;
78346;SDS011;67803;41.330;69.282;2024-03-22T01:01:07;8.57;;;4.95;;
78346;SDS011;67803;41.330;69.282;2024-03-22T01:03:38;12.52;;;5.82;;
78346;SDS011;67803;41.330;69.282;2024-03-22T01:06:08;9.88;;;6.18;;
78346;SDS011;67803;41.330;69.282;2024-03-22T01:08:39;10.13;;;6.47;;
78346;SDS011;67803;41.330;69.282;2024-03-22T01:11:10;11.25;;;7.00;;
78346;SDS011;67803;41.330;69.282;2024-03-22T01:13:40;13.55;;;6.93;;
78346;SDS011;67803;41.330;69.282;2024-03-22T01:16:11;13.20;;;6.38;;
78346;SDS011;67803;41.330;69.282;2024-03-22T01:18:41;18.92;;;6.63;;
78346;SDS011;67803;41.330;69.282;2024-03-22T01:21:12;18.05;;;6.80;;
78346;SDS011;67803;41.330;69.282;2024-03-22T01:23:42;34.22;;;8.50;;
78346;SDS011;67803;41.330;69.282;2024-03-22T01:26:13;31.70;;;8.15;;
78346;SDS011;67803;41.330;69.282;2024-03-22T01:28:44;17.27;;;7.13;;
78346;SDS011;67803;41.330;69.282;2024-03-22T01:31:14;15.95;;;6.97;;
78346;SDS011;67803;41.330;69.282;2024-03-22T01:33:48;18.05;;;6.97;;
78346;SDS011;67803;41.330;69.282;2024-03-22T01:36:18;18.00;;;7.25;;
78346;SDS011;67803;41.330;69.282;2024-03-22T01:38:49;18.48;;;7.15;;
78346;SDS011;67803;41.330;69.282;2024-03-22T01:41:19;21.95;;;8.00;;
78346;SDS011;67803;41.330;69.282;2024-03-22T01:43:50;29.33;;;6.82;;
78346;SDS011;67803;41.330;69.282;2024-03-22T01:46:20;20.35;;;6.57;;
78346;SDS011;67803;41.330;69.282;2024-03-22T01:48:51;11.13;;;4.22;;
78346;SDS011;67803;41.330;69.282;2024-03-22T01:51:22;14.95;;;4.82;;
78346;SDS011;67803;41.330;69.282;2024-03-22T01:53:53;9.05;;;4.45;;
78346;SDS011;67803;41.330;69.282;2024-03-22T01:56:24;17.08;;;4.85;;
78346;SDS011;67803;41.330;69.282;2024-03-22T01:58:54;18.85;;;5.18;;
78346;SDS011;67803;41.330;69.282;2024-03-22T02:01:25;16.73;;;4.35;;
78346;SDS011;67803;41.330;69.282;2024-03-22T02:03:56;7.60;;;2.83;;
78346;SDS011;67803;41.330;69.282;2024-03-22T02:06:26;44.40;;;4.70;;
78346;SDS011;67803;41.330;69.282;2024-03-22T02:08:57;5.38;;;3.47;;
78346;SDS011;67803;41.330;69.282;2024-03-22T02:11:28;42.95;;;6.38;;
78346;SDS011;67803;41.330;69.282;2024-03-22T02:13:59;7.97;;;3.05;;
78346;SDS011;67803;41.330;69.282;2024-03-22T02:16:30;11.07;;;4.07;;
78346;SDS011;67803;41.330;69.282;2024-03-22T02:19:00;8.20;;;3.40;;
78346;SDS011;67803;41.330;69.282;2024-03-22T02:21:31;7.82;;;3.28;;
78346;SDS011;67803;41.330;69.282;2024-03-22T02:24:01;6.68;;;3.15;;
78346;SDS011;67803;41.330;69.282;2024-03-22T02:26:32;11.93;;;3.63;;
78346;SDS011;67803;41.330;69.282;2024-03-22T02:29:02;24.60;;;3.83;;
78346;SDS011;67803;41.330;69.282;2024-03-22T02:31:33;9.35;;;3.22;;
78346;SDS011;67803;41.330;69.282;2024-03-22T02:34:03;19.17;;;3.78;;
78346;SDS011;67803;41.330;69.282;2024-03-22T02:36:34;18.42;;;4.22;;
78346;SDS011;67803;41.330;69.282;2024-03-22T02:39:06;7.03;;;3.45;;
78346;SDS011;67803;41.330;69.282;2024-03-22T02:41:36;18.55;;;4.05;;
78346;SDS011;67803;41.330;69.282;2024-03-22T02:44:07;12.10;;;4.25;;
78346;SDS011;67803;41.330;69.282;2024-03-22T02:46:37;31.42;;;5.35;;
78346;SDS011;67803;41.330;69.282;2024-03-22T02:49:08;25.40;;;5.82;;
78346;SDS011;67803;41.330;69.282;2024-03-22T02:51:38;15.10;;;5.63;;
78346;SDS011;67803;41.330;69.282;2024-03-22T02:54:09;25.55;;;7.25;;
78346;SDS011;67803;41.330;69.282;2024-03-22T02:56:40;9.25;;;4.13;;
78346;SDS011;67803;41.330;69.282;2024-03-22T02:59:10;13.00;;;3.20;;
78346;SDS011;67803;41.330;69.282;2024-03-22T03:01:41;22.83;;;4.25;;
78346;SDS011;67803;41.330;69.282;2024-03-22T03:04:11;9.20;;;2.53;;
78346;SDS011;67803;41.330;69.282;2024-03-22T03:06:42;4.03;;;1.60;;
78346;SDS011;67803;41.330;69.282;2024-03-22T03:09:12;8.55;;;1.63;;
78346;SDS011;67803;41.330;69.282;2024-03-22T03:11:43;5.07;;;1.40;;
78346;SDS011;67803;41.330;69.282;2024-03-22T03:14:13;13.50;;;1.60;;
78346;SDS011;67803;41.330;69.282;2024-03-22T03:16:44;18.13;;;2.58;;
78346;SDS011;67803;41.330;69.282;2024-03-22T03:19:15;9.43;;;1.75;;
78346;SDS011;67803;41.330;69.282;2024-03-22T03:21:45;14.27;;;2.13;;
78346;SDS011;67803;41.330;69.282;2024-03-22T03:24:16;7.53;;;1.83;;
78346;SDS011;67803;41.330;69.282;2024-03-22T03:26:46;4.45;;;1.65;;
78346;SDS011;67803;41.330;69.282;2024-03-22T03:29:17;4.78;;;2.05;;
78346;SDS011;67803;41.330;69.282;2024-03-22T03:31:47;3.58;;;2.00;;
78346;SDS011;67803;41.330;69.282;2024-03-22T03:34:19;8.30;;;2.40;;
78346;SDS011;67803;41.330;69.282;2024-03-22T03:36:50;18.63;;;2.67;;
78346;SDS011;67803;41.330;69.282;2024-03-22T03:39:21;4.22;;;1.73;;
78346;SDS011;67803;41.330;69.282;2024-03-22T03:41:51;6.97;;;2.20;;
78346;SDS011;67803;41.330;69.282;2024-03-22T03:44:22;8.70;;;2.42;;
78346;SDS011;67803;41.330;69.282;2024-03-22T03:46:52;9.55;;;2.30;;
78346;SDS011;67803;41.330;69.282;2024-03-22T03:49:23;6.65;;;1.92;;
78346;SDS011;67803;41.330;69.282;2024-03-22T03:51:54;14.45;;;2.40;;
78346;SDS011;67803;41.330;69.282;2024-03-22T03:54:24;5.97;;;1.92;;
78346;SDS011;67803;41.330;69.282;2024-03-22T03:56:55;15.10;;;2.33;;
78346;SDS011;67803;41.330;69.282;2024-03-22T03:59:25;13.18;;;2.60;;
78346;SDS011;67803;41.330;69.282;2024-03-22T04:01:56;10.15;;;2.35;;
78346;SDS011;67803;41.330;69.282;2024-03-22T04:04:26;9.05;;;2.20;;
78346;SDS011;67803;41.330;69.282;2024-03-22T04:06:57;5.18;;;2.10;;
78346;SDS011;67803;41.330;69.282;2024-03-22T04:09:28;23.38;;;3.30;;
78346;SDS011;67803;41.330;69.282;2024-03-22T04:11:58;17.77;;;2.50;;
78346;SDS011;67803;41.330;69.282;2024-03-22T04:14:29;13.02;;;3.42;;
78346;SDS011;67803;41.330;69.282;2024-03-22T04:17:00;22.75;;;2.75;;
78346;SDS011;67803;41.330;69.282;2024-03-22T04:19:31;11.73;;;2.88;;
78346;SDS011;67803;41.330;69.282;2024-03-22T04:22:01;9.82;;;2.60;;
78346;SDS011;67803;41.330;69.282;2024-03-22T04:24:32;10.63;;;1.70;;
78346;SDS011;67803;41.330;69.282;2024-03-22T04:27:02;11.23;;;2.08;;
78346;SDS011;67803;41.330;69.282;2024-03-22T04:29:33;15.50;;;2.00;;
78346;SDS011;67803;41.330;69.282;2024-03-22T04:32:04;8.63;;;1.80;;
78346;SDS011;67803;41.330;69.282;2024-03-22T04:34:34;6.40;;;1.63;;
78346;SDS011;67803;41.330;69.282;2024-03-22T04:37:05;12.65;;;2.00;;
78346;SDS011;67803;41.330;69.282;2024-03-22T04:39:37;16.67;;;2.15;;
78346;SDS011;67803;41.330;69.282;2024-03-22T04:42:07;4.53;;;1.33;;
78346;SDS011;67803;41.330;69.282;2024-03-22T04:44:38;4.40;;;1.30;;
78346;SDS011;67803;41.330;69.282;2024-03-22T04:47:08;5.68;;;1.42;;
78346;SDS011;67803;41.330;69.282;2024-03-22T04:49:39;13.50;;;1.80;;
78346;SDS011;67803;41.330;69.282;2024-03-22T04:52:10;10.35;;;1.30;;
78346;SDS011;67803;41.330;69.282;2024-03-22T04:54:40;1.77;;;1.00;;
78346;SDS011;67803;41.330;69.282;2024-03-22T04:57:11;16.65;;;1.63;;
78346;SDS011;67803;41.330;69.282;2024-03-22T04:59:41;24.20;;;2.17;;
78346;SDS011;67803;41.330;69.282;2024-03-22T05:02:12;7.28;;;1.63;;
78346;SDS011;67803;41.330;69.282;2024-03-22T05:04:42;8.07;;;1.70;;
78346;SDS011;67803;41.330;69.282;2024-03-22T05:07:13;18.05;;;2.70;;
78346;SDS011;67803;41.330;69.282;2024-03-22T05:09:43;9.02;;;2.08;;
78346;SDS011;67803;41.330;69.282;2024-03-22T05:12:14;26.83;;;2.88;;
78346;SDS011;67803;41.330;69.282;2024-03-22T05:14:45;10.68;;;1.92;;
78346;SDS011;67803;41.330;69.282;2024-03-22T05:17:15;6.70;;;2.03;;
78346;SDS011;67803;41.330;69.282;2024-03-22T05:19:46;10.07;;;2.20;;
78346;SDS011;67803;41.330;69.282;2024-03-22T05:22:17;15.65;;;2.90;;
78346;SDS011;67803;41.330;69.282;2024-03-22T05:24:47;17.63;;;2.95;;
78346;SDS011;67803;41.330;69.282;2024-03-22T05:27:18;18.98;;;3.38;;
78346;SDS011;67803;41.330;69.282;2024-03-22T05:29:48;19.48;;;3.08;;
78346;SDS011;67803;41.330;69.282;2024-03-22T05:32:19;16.30;;;3.00;;
78346;SDS011;67803;41.330;69.282;2024-03-22T05:34:49;24.98;;;4.00;;
78346;SDS011;67803;41.330;69.282;2024-03-22T05:37:20;9.23;;;1.90;;
78346;SDS011;67803;41.330;69.282;2024-03-22T05:39:51;22.77;;;2.33;;
78346;SDS011;67803;41.330;69.282;2024-03-22T05:42:21;9.00;;;1.65;;
78346;SDS011;67803;41.330;69.282;2024-03-22T05:44:52;15.30;;;2.00;;
78346;SDS011;67803;41.330;69.282;2024-03-22T05:47:23;15.18;;;2.05;;
78346;SDS011;67803;41.330;69.282;2024-03-22T05:49:53;7.22;;;1.70;;
78346;SDS011;67803;41.330;69.282;2024-03-22T05:52:24;12.85;;;2.00;;
78346;SDS011;67803;41.330;69.282;2024-03-22T05:54:54;22.77;;;2.38;;
78346;SDS011;67803;41.330;69.282;2024-03-22T05:57:25;13.48;;;2.22;;
78346;SDS011;67803;41.330;69.282;2024-03-22T05:59:56;15.88;;;2.25;;
78346;SDS011;67803;41.330;69.282;2024-03-22T06:02:27;29.13;;;2.30;;
78346;SDS011;67803;41.330;69.282;2024-03-22T06:04:57;15.45;;;2.20;;
78346;SDS011;67803;41.330;69.282;2024-03-22T06:07:28;27.42;;;2.63;;
78346;SDS011;67803;41.330;69.282;2024-03-22T06:10:00;6.28;;;1.95;;
78346;SDS011;67803;41.330;69.282;2024-03-22T06:12:30;22.15;;;2.90;;
78346;SDS011;67803;41.330;69.282;2024-03-22T06:15:01;14.45;;;1.52;;
78346;SDS011;67803;41.330;69.282;2024-03-22T06:17:33;24.73;;;2.58;;
78346;SDS011;67803;41.330;69.282;2024-03-22T06:20:04;15.32;;;2.00;;
78346;SDS011;67803;41.330;69.282;2024-03-22T06:22:35;9.60;;;2.08;;
78346;SDS011;67803;41.330;69.282;2024-03-22T06:25:06;17.70;;;1.88;;
78346;SDS011;67803;41.330;69.282;2024-03-22T06:27:36;8.07;;;1.52;;
78346;SDS011;67803;41.330;69.282;2024-03-22T06:30:07;20.85;;;2.03;;
78346;SDS011;67803;41.330;69.282;2024-03-22T06:32:38;11.95;;;1.90;;
78346;SDS011;67803;41.330;69.282;2024-03-22T06:35:08;2.78;;;1.50;;
78346;SDS011;67803;41.330;69.282;2024-03-22T06:37:39;23.38;;;2.28;;
78346;SDS011;67803;41.330;69.282;2024-03-22T06:40:10;18.60;;;3.35;;
78346;SDS011;67803;41.330;69.282;2024-03-22T06:42:41;20.42;;;1.63;;
78346;SDS011;67803;41.330;69.282;2024-03-22T06:45:11;10.73;;;1.38;;
78346;SDS011;67803;41.330;69.282;2024-03-22T06:47:42;6.70;;;1.80;;
78346;SDS011;67803;41.330;69.282;2024-03-22T06:50:13;7.43;;;1.48;;
78346;SDS011;67803;41.330;69.282;2024-03-22T06:52:43;4.05;;;2.15;;
78346;SDS011;67803;41.330;69.282;2024-03-22T06:55:14;9.38;;;1.58;;
78346;SDS011;67803;41.330;69.282;2024-03-22T06:57:48;16.75;;;2.15;;
78346;SDS011;67803;41.330;69.282;2024-03-22T07:00:19;4.13;;;1.25;;
78346;SDS011;67803;41.330;69.282;2024-03-22T07:02:49;8.07;;;1.70;;
78346;SDS011;67803;41.330;69.282;2024-03-22T07:05:20;3.78;;;1.55;;
78346;SDS011;67803;41.330;69.282;2024-03-22T07:07:51;7.25;;;1.60;;
78346;SDS011;67803;41.330;69.282;2024-03-22T07:10:26;4.60;;;1.10;;
78346;SDS011;67803;41.330;69.282;2024-03-22T07:12:58;6.10;;;1.20;;
78346;SDS011;67803;41.330;69.282;2024-03-22T07:15:28;14.00;;;1.95;;
78346;SDS011;67803;41.330;69.282;2024-03-22T07:18:00;35.45;;;2.78;;
78346;SDS011;67803;41.330;69.282;2024-03-22T07:20:30;3.20;;;0.90;;
78346;SDS011;67803;41.330;69.282;2024-03-22T07:23:01;6.38;;;1.60;;
78346;SDS011;67803;41.330;69.282;2024-03-22T07:25:32;29.85;;;2.83;;
78346;SDS011;67803;41.330;69.282;2024-03-22T07:28:02;4.22;;;1.90;;
78346;SDS011;67803;41.330;69.282;2024-03-22T07:30:33;4.15;;;1.63;;
78346;SDS011;67803;41.330;69.282;2024-03-22T07:33:05;13.75;;;2.58;;
78346;SDS011;67803;41.330;69.282;2024-03-22T07:35:37;5.68;;;2.10;;
78346;SDS011;67803;41.330;69.282;2024-03-22T07:38:07;5.88;;;1.90;;
78346;SDS011;67803;41.330;69.282;2024-03-22T07:40:38;5.13;;;2.50;;
78346;SDS011;67803;41.330;69.282;2024-03-22T07:43:09;4.95;;;1.80;;
78346;SDS011;67803;41.330;69.282;2024-03-22T07:45:39;11.93;;;3.13;;
78346;SDS011;67803;41.330;69.282;2024-03-22T07:48:10;17.73;;;2.58;;
78346;SDS011;67803;41.330;69.282;2024-03-22T07:50:41;6.47;;;2.50;;
78346;SDS011;67803;41.330;69.282;2024-03-22T07:53:12;14.55;;;3.15;;
78346;SDS011;67803;41.330;69.282;2024-03-22T07:55:44;15.80;;;2.88;;
78346;SDS011;67803;41.330;69.282;2024-03-22T07:58:14;10.32;;;3.42;;
78346;SDS011;67803;41.330;69.282;2024-03-22T08:00:45;4.65;;;2.60;;
78346;SDS011;67803;41.330;69.282;2024-03-22T08:03:15;3.25;;;1.90;;
78346;SDS011;67803;41.330;69.282;2024-03-22T08:05:46;10.80;;;2.78;;
78346;SDS011;67803;41.330;69.282;2024-03-22T08:08:16;8.50;;;2.08;;
78346;SDS011;67803;41.330;69.282;2024-03-22T08:10:48;21.75;;;2.35;;
78346;SDS011;67803;41.330;69.282;2024-03-22T08:13:18;9.70;;;2.22;;
78346;SDS011;67803;41.330;69.282;2024-03-22T08:15:49;5.90;;;2.22;;
78346;SDS011;67803;41.330;69.282;2024-03-22T08:18:20;6.57;;;2.17;;
78346;SDS011;67803;41.330;69.282;2024-03-22T08:20:51;19.73;;;2.60;;
78346;SDS011;67803;41.330;69.282;2024-03-22T08:23:21;8.85;;;2.60;;
78346;SDS011;67803;41.330;69.282;2024-03-22T08:25:53;9.40;;;2.35;;
78346;SDS011;67803;41.330;69.282;2024-03-22T08:28:23;2.35;;;1.20;;
78346;SDS011;67803;41.330;69.282;2024-03-22T08:30:54;3.42;;;1.13;;
78346;SDS011;67803;41.330;69.282;2024-03-22T08:33:24;4.57;;;2.00;;
78346;SDS011;67803;41.330;69.282;2024-03-22T08:35:55;8.07;;;1.80;;
78346;SDS011;67803;41.330;69.282;2024-03-22T08:38:25;2.58;;;1.52;;
78346;SDS011;67803;41.330;69.282;2024-03-22T08:40:57;7.38;;;2.47;;
78346;SDS011;67803;41.330;69.282;2024-03-22T08:43:27;3.63;;;1.38;;
78346;SDS011;67803;41.330;69.282;2024-03-22T08:45:59;8.07;;;2.28;;
78346;SDS011;67803;41.330;69.282;2024-03-22T08:48:30;5.70;;;2.53;;
78346;SDS011;67803;41.330;69.282;2024-03-22T08:51:00;5.05;;;1.80;;
78346;SDS011;67803;41.330;69.282;2024-03-22T08:53:31;4.35;;;1.98;;
78346;SDS011;67803;41.330;69.282;2024-03-22T08:56:02;8.85;;;1.92;;
78346;SDS011;67803;41.330;69.282;2024-03-22T08:58:32;6.28;;;2.28;;
78346;SDS011;67803;41.330;69.282;2024-03-22T09:01:03;8.73;;;2.95;;
78346;SDS011;67803;41.330;69.282;2024-03-22T09:03:35;7.80;;;1.60;;
78346;SDS011;67803;41.330;69.282;2024-03-22T09:06:05;4.30;;;2.10;;
78346;SDS011;67803;41.330;69.282;2024-03-22T09:08:36;4.38;;;2.00;;
78346;SDS011;67803;41.330;69.282;2024-03-22T09:11:07;4.30;;;1.70;;
78346;SDS011;67803;41.330;69.282;2024-03-22T09:13:37;4.45;;;1.85;;
78346;SDS011;67803;41.330;69.282;2024-03-22T09:16:08;2.83;;;1.50;;
78346;SDS011;67803;41.330;69.282;2024-03-22T09:18:39;3.88;;;1.40;;
78346;SDS011;67803;41.330;69.282;2024-03-22T09:21:09;2.08;;;1.15;;
78346;SDS011;67803;41.330;69.282;2024-03-22T09:23:40;4.00;;;1.55;;
78346;SDS011;67803;41.330;69.282;2024-03-22T09:26:11;2.13;;;0.80;;
78346;SDS011;67803;41.330;69.282;2024-03-22T09:28:42;2.03;;;1.00;;
78346;SDS011;67803;41.330;69.282;2024-03-22T09:31:16;8.10;;;1.65;;
78346;SDS011;67803;41.330;69.282;2024-03-22T09:33:46;6.00;;;1.65;;
78346;SDS011;67803;41.330;69.282;2024-03-22T09:36:17;3.50;;;1.65;;
78346;SDS011;67803;41.330;69.282;2024-03-22T09:38:47;6.97;;;1.95;;
78346;SDS011;67803;41.330;69.282;2024-03-22T09:41:23;7.18;;;1.85;;
78346;SDS011;67803;41.330;69.282;2024-03-22T09:43:56;4.38;;;2.20;;
78346;SDS011;67803;41.330;69.282;2024-03-22T09:46:27;6.28;;;2.75;;
78346;SDS011;67803;41.330;69.282;2024-03-22T09:48:58;6.55;;;2.97;;
78346;SDS011;67803;41.330;69.282;2024-03-22T09:51:29;8.32;;;3.08;;
78346;SDS011;67803;41.330;69.282;2024-03-22T09:54:00;7.25;;;2.85;;
78346;SDS011;67803;41.330;69.282;2024-03-22T09:56:31;7.78;;;3.00;;
78346;SDS011;67803;41.330;69.282;2024-03-22T09:59:02;7.05;;;3.60;;
78346;SDS011;67803;41.330;69.282;2024-03-22T10:01:35;8.77;;;3.15;;
78346;SDS011;67803;41.330;69.282;2024-03-22T10:04:07;8.43;;;2.90;;
78346;SDS011;67803;41.330;69.282;2024-03-22T10:06:39;5.22;;;2.35;;
78346;SDS011;67803;41.330;69.282;2024-03-22T10:09:10;7.50;;;2.17;;
78346;SDS011;67803;41.330;69.282;2024-03-22T10:11:41;5.63;;;2.35;;
78346;SDS011;67803;41.330;69.282;2024-03-22T10:14:12;7.28;;;2.97;;
78346;SDS011;67803;41.330;69.282;2024-03-22T10:16:42;5.50;;;2.60;;
78346;SDS011;67803;41.330;69.282;2024-03-22T10:19:13;5.40;;;2.75;;
78346;SDS011;67803;41.330;69.282;2024-03-22T10:21:43;5.07;;;2.17;;
78346;SDS011;67803;41.330;69.282;2024-03-22T10:24:14;5.47;;;2.10;;
78346;SDS011;67803;41.330;69.282;2024-03-22T10:26:45;4.32;;;2.10;;
78346;SDS011;67803;41.330;69.282;2024-03-22T10:29:16;4.95;;;2.20;;
78346;SDS011;67803;41.330;69.282;2024-03-22T10:31:46;6.75;;;2.47;;
78346;SDS011;67803;41.330;69.282;2024-03-22T10:34:18;6.35;;;2.35;;
78346;SDS011;67803;41.330;69.282;2024-03-22T10:36:49;3.63;;;2.10;;
78346;SDS011;67803;41.330;69.282;2024-03-22T10:39:19;5.90;;;2.65;;
78346;SDS011;67803;41.330;69.282;2024-03-22T10:41:50;5.65;;;2.20;;
78346;SDS011;67803;41.330;69.282;2024-03-22T10:44:21;2.95;;;1.40;;
78346;SDS011;67803;41.330;69.282;2024-03-22T10:46:51;4.50;;;1.27;;
78346;SDS011;67803;41.330;69.282;2024-03-22T10:49:24;3.92;;;1.67;;
78346;SDS011;67803;41.330;69.282;2024-03-22T10:51:57;7.07;;;1.83;;
78346;SDS011;67803;41.330;69.282;2024-03-22T10:54:31;4.78;;;1.83;;
78346;SDS011;67803;41.330;69.282;2024-03-22T10:57:02;4.80;;;1.88;;
78346;SDS011;67803;41.330;69.282;2024-03-22T10:59:34;3.58;;;1.50;;
78346;SDS011;67803;41.330;69.282;2024-03-22T11:02:05;5.07;;;1.60;;
78346;SDS011;67803;41.330;69.282;2024-03-22T11:04:37;4.78;;;1.60;;
78346;SDS011;67803;41.330;69.282;2024-03-22T11:07:07;3.22;;;1.40;;
78346;SDS011;67803;41.330;69.282;2024-03-22T11:09:38;3.35;;;1.65;;
78346;SDS011;67803;41.330;69.282;2024-03-22T11:12:09;3.63;;;1.70;;
78346;SDS011;67803;41.330;69.282;2024-03-22T11:14:40;4.45;;;1.17;;
78346;SDS011;67803;41.330;69.282;2024-03-22T11:17:10;3.05;;;1.25;;
78346;SDS011;67803;41.330;69.282;2024-03-22T11:19:41;5.10;;;1.90;;
78346;SDS011;67803;41.330;69.282;2024-03-22T11:22:11;3.53;;;1.48;;
78346;SDS011;67803;41.330;69.282;2024-03-22T11:24:43;2.38;;;1.42;;
78346;SDS011;67803;41.330;69.282;2024-03-22T11:27:13;2.63;;;1.50;;
78346;SDS011;67803;41.330;69.282;2024-03-22T11:29:45;3.42;;;1.75;;
78346;SDS011;67803;41.330;69.282;2024-03-22T11:32:16;3.97;;;1.42;;
78346;SDS011;67803;41.330;69.282;2024-03-22T11:34:47;5.03;;;1.85;;
78346;SDS011;67803;41.330;69.282;2024-03-22T11:37:18;3.85;;;1.80;;
78346;SDS011;67803;41.330;69.282;2024-03-22T11:39:48;4.03;;;1.75;;
78346;SDS011;67803;41.330;69.282;2024-03-22T11:42:19;3.95;;;1.70;;
78346;SDS011;67803;41.330;69.282;2024-03-22T11:44:50;4.03;;;1.92;;
78346;SDS011;67803;41.330;69.282;2024-03-22T11:47:21;3.53;;;1.98;;
78346;SDS011;67803;41.330;69.282;2024-03-22T11:49:52;1.85;;;1.45;;
78346;SDS011;67803;41.330;69.282;2024-03-22T11:52:25;3.22;;;1.50;;
78346;SDS011;67803;41.330;69.282;2024-03-22T11:54:56;3.63;;;1.50;;
78346;SDS011;67803;41.330;69.282;2024-03-22T11:57:27;3.92;;;1.80;;
78346;SDS011;67803;41.330;69.282;2024-03-22T11:59:59;2.92;;;1.95;;
78346;SDS011;67803;41.330;69.282;2024-03-22T12:02:31;3.90;;;1.98;;
78346;SDS011;67803;41.330;69.282;2024-03-22T12:05:02;3.85;;;1.70;;
78346;SDS011;67803;41.330;69.282;2024-03-22T12:07:33;3.38;;;1.77;;
78346;SDS011;67803;41.330;69.282;2024-03-22T12:10:04;5.22;;;2.20;;
78346;SDS011;67803;41.330;69.282;2024-03-22T12:12:35;4.85;;;2.03;;
78346;SDS011;67803;41.330;69.282;2024-03-22T12:15:06;5.93;;;2.05;;
78346;SDS011;67803;41.330;69.282;2024-03-22T12:17:37;3.10;;;1.35;;
78346;SDS011;67803;41.330;69.282;2024-03-22T12:20:09;1.98;;;1.60;;
78346;SDS011;67803;41.330;69.282;2024-03-22T12:22:40;4.28;;;1.80;;
78346;SDS011;67803;41.330;69.282;2024-03-22T12:25:11;2.63;;;1.67;;
78346;SDS011;67803;41.330;69.282;2024-03-22T12:27:42;4.38;;;1.50;;
78346;SDS011;67803;41.330;69.282;2024-03-22T12:30:13;12.82;;;2.28;;
78346;SDS011;67803;41.330;69.282;2024-03-22T12:32:44;4.38;;;2.30;;
78346;SDS011;67803;41.330;69.282;2024-03-22T12:35:14;2.35;;;1.52;;
78346;SDS011;67803;41.330;69.282;2024-03-22T12:37:45;3.55;;;1.92;;
78346;SDS011;67803;41.330;69.282;2024-03-22T12:40:15;3.33;;;1.85;;
78346;SDS011;67803;41.330;69.282;2024-03-22T12:42:46;3.80;;;2.00;;
78346;SDS011;67803;41.330;69.282;2024-03-22T12:45:16;3.53;;;1.80;;
78346;SDS011;67803;41.330;69.282;2024-03-22T12:47:49;3.55;;;1.60;;
78346;SDS011;67803;41.330;69.282;2024-03-22T12:50:19;2.97;;;1.83;;
78346;SDS011;67803;41.330;69.282;2024-03-22T12:52:50;3.75;;;1.70;;
78346;SDS011;67803;41.330;69.282;2024-03-22T12:55:21;5.20;;;2.08;;
78346;SDS011;67803;41.330;69.282;2024-03-22T12:57:51;3.67;;;1.65;;
78346;SDS011;67803;41.330;69.282;2024-03-22T13:00:22;5.38;;;2.03;;
78346;SDS011;67803;41.330;69.282;2024-03-22T13:02:52;4.53;;;2.00;;
78346;SDS011;67803;41.330;69.282;2024-03-22T13:05:23;6.57;;;2.53;;
78346;SDS011;67803;41.330;69.282;2024-03-22T13:07:54;5.78;;;2.38;;
78346;SDS011;67803;41.330;69.282;2024-03-22T13:10:25;6.00;;;3.08;;
78346;SDS011;67803;41.330;69.282;2024-03-22T13:12:56;5.45;;;2.83;;
78346;SDS011;67803;41.330;69.282;2024-03-22T13:15:27;4.57;;;2.45;;
78346;SDS011;67803;41.330;69.282;2024-03-22T13:17:58;5.30;;;2.63;;
78346;SDS011;67803;41.330;69.282;2024-03-22T13:20:29;6.80;;;3.53;;
78346;SDS011;67803;41.330;69.282;2024-03-22T13:22:59;7.05;;;3.33;;
78346;SDS011;67803;41.330;69.282;2024-03-22T13:25:31;6.45;;;3.17;;
78346;SDS011;67803;41.330;69.282;2024-03-22T13:28:03;7.85;;;3.63;;
78346;SDS011;67803;41.330;69.282;2024-03-22T13:30:35;11.85;;;4.95;;
78346;SDS011;67803;41.330;69.282;2024-03-22T13:33:07;10.75;;;4.43;;
78346;SDS011;67803;41.330;69.282;2024-03-22T13:35:38;9.68;;;4.80;;
78346;SDS011;67803;41.330;69.282;2024-03-22T13:38:08;8.70;;;4.80;;
78346;SDS011;67803;41.330;69.282;2024-03-22T13:40:43;10.80;;;5.10;;
78346;SDS011;67803;41.330;69.282;2024-03-22T13:43:14;7.47;;;3.85;;
78346;SDS011;67803;41.330;69.282;2024-03-22T13:45:45;7.47;;;3.58;;
78346;SDS011;67803;41.330;69.282;2024-03-22T13:48:16;10.45;;;3.50;;
78346;SDS011;67803;41.330;69.282;2024-03-22T13:50:47;13.07;;;3.83;;
78346;SDS011;67803;41.330;69.282;2024-03-22T13:53:17;7.93;;;3.45;;
78346;SDS011;67803;41.330;69.282;2024-03-22T13:55:51;7.00;;;3.40;;
78346;SDS011;67803;41.330;69.282;2024-03-22T13:58:24;8.32;;;3.58;;
78346;SDS011;67803;41.330;69.282;2024-03-22T14:00:55;25.55;;;4.85;;
78346;SDS011;67803;41.330;69.282;2024-03-22T14:03:26;8.75;;;3.00;;
78346;SDS011;67803;41.330;69.282;2024-03-22T14:05:56;17.23;;;4.20;;
78346;SDS011;67803;41.330;69.282;2024-03-22T14:08:27;11.13;;;3.45;;
78346;SDS011;67803;41.330;69.282;2024-03-22T14:10:58;7.60;;;3.80;;
78346;SDS011;67803;41.330;69.282;2024-03-22T14:13:29;7.88;;;4.22;;
78346;SDS011;67803;41.330;69.282;2024-03-22T14:15:59;11.05;;;5.13;;
78346;SDS011;67803;41.330;69.282;2024-03-22T14:18:30;10.55;;;5.43;;
78346;SDS011;67803;41.330;69.282;2024-03-22T14:21:01;9.00;;;4.25;;
78346;SDS011;67803;41.330;69.282;2024-03-22T14:23:32;12.63;;;5.45;;
78346;SDS011;67803;41.330;69.282;2024-03-22T14:26:03;10.05;;;5.32;;
78346;SDS011;67803;41.330;69.282;2024-03-22T14:28:33;12.55;;;6.45;;
78346;SDS011;67803;41.330;69.282;2024-03-22T14:31:04;13.27;;;6.97;;
78346;SDS011;67803;41.330;69.282;2024-03-22T14:33:37;13.18;;;6.30;;
78346;SDS011;67803;41.330;69.282;2024-03-22T14:36:08;16.05;;;7.50;;
78346;SDS011;67803;41.330;69.282;2024-03-22T14:38:39;18.25;;;7.57;;
78346;SDS011;67803;41.330;69.282;2024-03-22T14:41:10;14.48;;;6.65;;
78346;SDS011;67803;41.330;69.282;2024-03-22T14:43:40;15.60;;;7.72;;
78346;SDS011;67803;41.330;69.282;2024-03-22T14:46:11;17.00;;;8.35;;
78346;SDS011;67803;41.330;69.282;2024-03-22T14:48:41;21.73;;;9.27;;
78346;SDS011;67803;41.330;69.282;2024-03-22T14:51:12;17.52;;;9.52;;